Isaac Baba

Recruteur en chef - Inter Allies
20 Févr 2028
Dimanche
Processus

Personnalité

Adaptabilité (9) Ambition (7) Controverse (1) Loyauté (9) Pression (9) Professionnalisme (9) Sportivité (10) Tempérament (12)

Profil

Style d'entraînement Démocratique
Diplôme National A
Détermination 4
Gestion des joueurs 3
Motivation 3
Discipline 2
Satisfaction professionnelle
100%
Fatigue
0%
Rôle Recruteur en chef
Salaire 41.9K p/s
Contrat 14.03.2030

Performance

Comportement Bon
Efficacité de l'entraînement
26%
Développement des joueurs
35%
Prévention des blessures
35%
Mise en place tactique
30%

Événements récents

A participé à une réunion de recrutement maintenant
A participé à une réunion de recrutement 7j
A participé à une réunion de recrutement 7j
A recommandé une cible de transfert 7j
A participé à une réunion de recrutement 14j
A participé à une réunion de recrutement 14j
A recommandé une cible de transfert 14j
A recommandé une cible de transfert 21j

Suivi en cours

103
Joueur Club Statut Capacité Confiance Observé Dernière observation Dernier vote
Ernest Mwankurinah Aduana Stars Actif 74 / 74 58% 1 17.01.2028 Approuver
Joseph Wakaso Wa All Stars Actif 119 / 119 42% 1 / 1m 29.12.2027 -
Gladson Essien BA All Stars Actif 60 / 68 58% 1 30.08.2027 -
Sam Nombe Milton Keynes Dons Actif 112 / 124 40% 2 05.07.2027 -
Simone Mazzocchi Cosenza Actif 113 / 124 40% 5 05.07.2027 -
Louis Appéré Cambridge United Actif 111 / 84 40% 2 21.06.2027 -
Kelvin Obeng Medeama Actif 90 / 93 40% 2 21.06.2027 -
Lorenzo Di Stefano Torres Actif 97 / 99 40% 5 14.06.2027 -
Emanuele Schimmenti Potenza Actif 106 / 97 40% 1 30.05.2027 -
Ekain Orobengoa Real Sociedad Actif 118 / 114 40% 5 29.05.2027 -
Yaw Mensah Hasaacas Actif 95 / 94 40% 5 29.05.2027 -
Lamine Diakité Djoliba Actif 102 / 104 40% 1 27.05.2027 -
Yeangel Montero Naxxar Lions Actif 119 / 111 40% 7 26.05.2027 -
Lungelo Nguse AS Bakaridjan Actif 78 / 88 40% 2 26.05.2027 -
Gladson Paintsil Wa All Stars Actif 88 / 98 40% 4 24.05.2027 -
Jonathan Gyan Liberty Professionals Actif 88 / 97 40% 4 23.05.2027 -
Lorenzo De Leo Renate Actif 104 / 110 40% 2 22.05.2027 -
Justice Figuareido Chippa United Actif 105 / 83 40% 4 20.05.2027 -
Bruno Gomes Valletta Actif 110 / 111 40% 3 20.05.2027 -
Godbless Ayeke AS Korofina Actif 72 / 80 40% 2 18.05.2027 -
John Yeboah Venezia Actif 134 / 118 40% 1 18.05.2027 -
Dany Mota Monza Actif 128 / 122 40% 2 17.05.2027 -
Jere Vrcić Birkirkara Actif 104 / 95 40% 4 12.05.2027 -
Robert Mizo Ashanti Gold Actif 101 / 113 40% 6 11.05.2027 -
Suleiman Mojereola FC Diarra Actif 69 / 74 40% 4 09.05.2027 -
Job Ochieng Real Sociedad Actif 124 / 95 40% 4 06.05.2027 -
Marco Tumminello Benevento Actif 124 / 102 40% 1 06.05.2027 -
Robert Murić Floriana Actif 116 / 97 40% 1 04.05.2027 -
Manuele Malotti Livorno Actif 94 / 89 40% 1 01.05.2027 -
Lwanda Mbanjwa Maritzburg United Actif 82 / 88 40% 2 30.04.2027 -
Franklin Sasere Birkirkara Actif 98 / 85 40% 7 26.04.2027 -
Isaac Essien WAFA Actif 104 / 94 40% 7 26.04.2027 -
Diamanka Senghor Mosta Actif 91 / 76 40% 6 25.04.2027 -
Alessio Nepi Perugia Actif 91 / 101 40% 2 25.04.2027 -
Luca Fabrizi Pianese Actif 88 / 104 40% 1 23.04.2027 -
Camillo Tavernelli Arezzo Actif 99 / 113 40% 1 21.04.2027 -
Marcelo Sliema Wanderers Actif 100 / 80 40% 2 20.04.2027 -
Thomas Agyepong Great Olympics Actif 87 / 103 40% 1 19.04.2027 -
Thomas Waddingham Portsmouth Actif 103 / 123 40% 1 18.04.2027 -
Yusuff Adewale Afrique Foot Elite Actif 69 / 90 40% 3 09.04.2027 -
Dean Erasmus Platinum Stars Actif 81 / 83 40% 3 08.04.2027 -
Gabriel Costa Naxxar Lions Actif 87 / 59 40% 1 03.04.2027 -
Mohammed Yahaya Great Olympics Actif 88 / 85 40% 1 03.04.2027 -
Bismark Asante Ashanti Gold Actif 103 / 83 40% 2 31.03.2027 -
Kwadwo Obeng Junior Heart of Lions Actif 100 / 74 40% 3 29.03.2027 -
Selasie Bakai US Forces Armees Actif 92 / 85 40% 1 28.03.2027 -
Kenan Dervišagić Floriana Actif 97 / 88 40% 5 25.03.2027 -
Sibusiso Tshabalala Polokwane City Actif 95 / 90 40% 3 24.03.2027 -
Ayom Majok Zabbar St. Patrick Actif 100 / 77 40% 4 20.03.2027 -
Sanele Sikhosana US Bougouni Actif 71 / 77 40% 1 18.03.2027 -
André Gzira United Actif 57 / 90 40% 1 16.03.2027 -
Aaron Drinan Swindon Town Actif 90 / 89 40% 1 15.03.2027 -
Fortune Bassey Djoliba Actif 105 / 96 40% 2 01.03.2027 -
Kwame Opoku Asante Kotoko Actif 94 / 95 40% 3 01.02.2027 -
Samuel Tetteh Ashanti Gold Actif 111 / 100 40% 1 25.01.2027 -
Kyle Joseph Middlesbrough Actif 102 / 123 40% 2 29.12.2026 -
Oto John ES Mostaganem Actif 107 / 100 40% 2 29.12.2026 -
Francis Kahiro KCB Actif 76 / 96 40% 1 28.12.2026 -
Macaulay Langstaff Millwall Actif 104 / 125 40% 2 27.12.2026 -
Yago Santiago Racing Santander Actif 113 / 111 40% 2 26.12.2026 -
Hassan Beja AFC Leopards Actif 96 / 78 40% 1 25.12.2026 -
Andre Green AVS Actif 97 / 119 40% 1 22.12.2026 -
Samuel Ayanrinde Kenya Police Actif 82 / 96 40% 1 19.12.2026 -
Samuel Ssenyonjo AFC Leopards Actif 64 / 80 40% 3 13.12.2026 -
Jovon Makama Norwich City Actif 107 / 131 40% 1 08.12.2026 -
Peter Thiong'o Kakamega Homeboyz Actif 96 / 81 40% 1 06.12.2026 -
Risen Albert University of Pretoria Actif 76 / 96 40% 1 04.12.2026 -
Paul Mbong Floriana Actif 115 / 108 40% 2 02.12.2026 -
Damir Céter Hamrun Spartans Actif 104 / 99 40% 3 29.11.2026 -
Williams Furman Black Aces Actif 64 / 69 40% 1 25.11.2026 -
Keagan Zungu Ajax Cape Town Actif 101 / 106 40% 1 22.11.2026 -
Tyreece Simpson Maritzburg United Actif 83 / 98 40% 1 13.11.2026 -
Josh Woods Accrington Stanley Actif 77 / 101 40% 2 12.11.2026 -
Makabi Lilepo Kaizer Chiefs Actif 107 / 121 40% 2 08.11.2026 -
James Kinyanjui AFC Leopards Actif 102 / 84 40% 1 06.11.2026 -
Lewis McCann Fleetwood Town Actif 87 / 98 40% 3 05.11.2026 -
Tyshick Mosengo Kenya Police Actif 70 / 86 40% 1 05.11.2026 -
David Kalokoh Ajax Actif 129 / 133 40% 1 31.10.2026 -
Jaze Kabia Grimsby Town Actif 84 / 103 40% 2 24.10.2026 -
David Sakwa Bandari Actif 96 / 83 40% 1 23.10.2026 -
Nyamawi Beja Bandari Actif 85 / 88 40% 2 19.10.2026 -
Joseph Mwangi Kariobangi Sharks Actif 98 / 74 40% 1 18.10.2026 -
Augustine Nwaorisa Enyimba Actif 90 / 83 40% 1 17.10.2026 -
Luís Mota Zabbar St. Patrick Actif 76 / 99 40% 2 11.10.2026 -
Fletcher Holman Swindon Town Actif 83 / 84 40% 1 10.10.2026 -
Alfred Emoni Bandari Actif 69 / 94 40% 1 05.10.2026 -
Philani Khumalo Golden Arrows Actif 69 / 95 40% 1 01.10.2026 -
Benard Mundi Stade Malien Actif 86 / 102 40% 1 30.09.2026 -
Lee Bonis Chesterfield Actif 93 / 83 40% 3 28.09.2026 -
Alassana Jatta Notts County Actif 99 / 88 40% 2 18.09.2026 -
Auwalu Ali Malam Kano Pillars Actif 101 / 80 40% 1 12.09.2026 -
Patrick Otieno KCB Actif 65 / 81 40% 1 11.09.2026 -
Klaidi Lolos Peterborough United Actif 75 / 92 40% 1 11.09.2026 -
Umar Ada Nasarawa United Actif 82 / 103 40% 1 10.09.2026 -
Shuaibu Ibrahim Wikki Tourists Actif 99 / 98 40% 1 09.09.2026 -
James Emo Rangers International Actif 80 / 98 40% 1 07.09.2026 -
Sadeeq Abubakar Wikki Tourists Actif 84 / 73 40% 1 01.09.2026 -
Eliud Lokuwam Posta Rangers Actif 70 / 87 40% 1 24.08.2026 -
Will Davies Fleetwood Town Actif 72 / 90 40% 1 24.08.2026 -
Abubakar Adams Aduana Stars Actif 59 / 71 48% 1 17.08.2026 -
Kofi Asmah Medeama Actif 75 / 65 48% 1 03.08.2026 Observer
Joe Gelhardt Hull City Actif 139 / 134 40% 1 01.08.2026 -
Jacques Ekomié Wrexham Actif 120 / 116 40% 1 01.08.2026 -